aviador You're here:

YBMA Decoded Metar

MOUNT ISA in AUSTRALIA
Report Time2017-12-15 17:30:00
UTC Time2017-12-15 17:55:06
Flight Rules vfr VFR
Wind010° at 04 kt
W.Decomp.*RWY 34: 3.6 kt HW 1.7 kt RCW
W.Rank010° ranks 17
Current wind is below 010° avg. (6.2)
Visibility9999 m
Phenomena:N/A
Clouds:N/A
Expected CloudBase > 4,000 ft AGL from Temp-Dew spread
CeilingNone
Temp27°C (ISA +14)
Dew Point17°C (54% RH)
Heat Index27.7°C
QNH1007 hPa
Density Alt3,232 ft
Elevation1,129 ft
Report Wrong Elevation
Raw Report
YBMA 151730Z AUTO 01004KT 9999 // NCD 27/17 Q1007=

Extra information for YBMA:More info

Metar Taf Metar & Taf Last 4 Metars F.Rules Stats Wind Profile Meteogram Temp Stats Airport Information Weather charts Add Link Nearby VenuesMetar ALERT Operation Metar Decoded Social comments